sensor_id;sensor_type;location;lat;lon;timestamp;temperature;humidity
65207;SHT31;58477;48.072;11.970;2024-03-23T00:52:29;8.28;96.80
65207;SHT31;58477;48.072;11.970;2024-03-23T00:54:54;8.17;97.27
65207;SHT31;58477;48.072;11.970;2024-03-23T00:57:20;8.27;97.58
65207;SHT31;58477;48.072;11.970;2024-03-23T00:59:46;8.14;97.31
65207;SHT31;58477;48.072;11.970;2024-03-23T01:02:11;8.27;96.70
65207;SHT31;58477;48.072;11.970;2024-03-23T01:04:36;8.34;96.23
65207;SHT31;58477;48.072;11.970;2024-03-23T01:07:02;8.15;97.07
65207;SHT31;58477;48.072;11.970;2024-03-23T01:09:27;8.23;96.45
65207;SHT31;58477;48.072;11.970;2024-03-23T01:11:53;8.08;96.26
65207;SHT31;58477;48.072;11.970;2024-03-23T01:14:18;8.11;97.03
65207;SHT31;58477;48.072;11.970;2024-03-23T01:16:44;8.18;96.90
65207;SHT31;58477;48.072;11.970;2024-03-23T01:19:09;8.21;96.77
65207;SHT31;58477;48.072;11.970;2024-03-23T01:21:34;8.30;96.11
65207;SHT31;58477;48.072;11.970;2024-03-23T01:24:00;8.34;95.84
65207;SHT31;58477;48.072;11.970;2024-03-23T01:26:28;8.27;95.76
65207;SHT31;58477;48.072;11.970;2024-03-23T01:28:53;8.27;95.82
65207;SHT31;58477;48.072;11.970;2024-03-23T01:31:19;8.01;97.14
65207;SHT31;58477;48.072;11.970;2024-03-23T01:33:45;7.89;97.53
65207;SHT31;58477;48.072;11.970;2024-03-23T01:36:12;7.83;97.82
65207;SHT31;58477;48.072;11.970;2024-03-23T01:38:40;7.87;97.68
65207;SHT31;58477;48.072;11.970;2024-03-23T01:41:06;7.73;98.32
65207;SHT31;58477;48.072;11.970;2024-03-23T01:43:31;7.76;97.96
65207;SHT31;58477;48.072;11.970;2024-03-23T01:45:59;7.80;97.52
65207;SHT31;58477;48.072;11.970;2024-03-23T01:48:28;7.82;97.61
65207;SHT31;58477;48.072;11.970;2024-03-23T01:50:56;7.55;98.46
65207;SHT31;58477;48.072;11.970;2024-03-23T01:53:22;7.45;98.60
65207;SHT31;58477;48.072;11.970;2024-03-23T01:55:50;7.35;98.64
65207;SHT31;58477;48.072;11.970;2024-03-23T01:58:15;7.29;98.63
65207;SHT31;58477;48.072;11.970;2024-03-23T02:00:41;7.22;98.84
65207;SHT31;58477;48.072;11.970;2024-03-23T02:03:26;7.26;98.87
65207;SHT31;58477;48.072;11.970;2024-03-23T02:05:53;7.16;98.79
65207;SHT31;58477;48.072;11.970;2024-03-23T02:08:21;7.18;98.82
65207;SHT31;58477;48.072;11.970;2024-03-23T02:10:48;7.20;98.75
65207;SHT31;58477;48.072;11.970;2024-03-23T02:13:15;7.20;98.86
65207;SHT31;58477;48.072;11.970;2024-03-23T02:15:41;7.19;98.81
65207;SHT31;58477;48.072;11.970;2024-03-23T02:18:07;7.14;98.94
65207;SHT31;58477;48.072;11.970;2024-03-23T02:20:33;7.20;98.89
65207;SHT31;58477;48.072;11.970;2024-03-23T02:22:59;7.38;98.72
65207;SHT31;58477;48.072;11.970;2024-03-23T02:25:24;7.42;98.14
65207;SHT31;58477;48.072;11.970;2024-03-23T02:27:50;7.49;98.52
65207;SHT31;58477;48.072;11.970;2024-03-23T02:30:15;7.49;98.38
65207;SHT31;58477;48.072;11.970;2024-03-23T02:32:41;7.45;98.32
65207;SHT31;58477;48.072;11.970;2024-03-23T02:35:06;7.52;97.72
65207;SHT31;58477;48.072;11.970;2024-03-23T02:37:32;7.29;98.22
65207;SHT31;58477;48.072;11.970;2024-03-23T02:39:58;7.39;97.38
65207;SHT31;58477;48.072;11.970;2024-03-23T02:42:23;7.42;96.94
65207;SHT31;58477;48.072;11.970;2024-03-23T02:44:49;7.32;97.27
65207;SHT31;58477;48.072;11.970;2024-03-23T02:47:14;7.32;97.47
65207;SHT31;58477;48.072;11.970;2024-03-23T02:49:40;7.45;97.41
65207;SHT31;58477;48.072;11.970;2024-03-23T02:52:05;7.52;96.91
65207;SHT31;58477;48.072;11.970;2024-03-23T02:54:31;7.48;96.35
65207;SHT31;58477;48.072;11.970;2024-03-23T02:56:56;7.42;96.50
65207;SHT31;58477;48.072;11.970;2024-03-23T02:59:22;7.40;96.66
65207;SHT31;58477;48.072;11.970;2024-03-23T03:01:47;7.04;98.10
65207;SHT31;58477;48.072;11.970;2024-03-23T03:04:12;6.98;98.19
65207;SHT31;58477;48.072;11.970;2024-03-23T03:06:38;6.99;97.45
65207;SHT31;58477;48.072;11.970;2024-03-23T03:09:03;6.96;96.81
65207;SHT31;58477;48.072;11.970;2024-03-23T03:11:29;6.85;96.62
65207;SHT31;58477;48.072;11.970;2024-03-23T03:13:55;6.94;95.92
65207;SHT31;58477;48.072;11.970;2024-03-23T03:16:20;6.98;95.80
65207;SHT31;58477;48.072;11.970;2024-03-23T03:18:46;7.06;95.74
65207;SHT31;58477;48.072;11.970;2024-03-23T03:21:12;7.29;94.40
65207;SHT31;58477;48.072;11.970;2024-03-23T03:23:38;7.28;94.40
65207;SHT31;58477;48.072;11.970;2024-03-23T03:26:06;7.36;93.93
65207;SHT31;58477;48.072;11.970;2024-03-23T03:28:32;7.38;93.57
65207;SHT31;58477;48.072;11.970;2024-03-23T03:30:59;7.33;94.14
65207;SHT31;58477;48.072;11.970;2024-03-23T03:33:24;7.36;94.02
65207;SHT31;58477;48.072;11.970;2024-03-23T03:35:49;7.40;93.34
65207;SHT31;58477;48.072;11.970;2024-03-23T03:38:18;7.33;93.69
65207;SHT31;58477;48.072;11.970;2024-03-23T03:40:43;7.19;94.31
65207;SHT31;58477;48.072;11.970;2024-03-23T03:43:09;7.15;94.66
65207;SHT31;58477;48.072;11.970;2024-03-23T03:45:34;7.12;93.96
65207;SHT31;58477;48.072;11.970;2024-03-23T03:47:59;7.12;93.99
65207;SHT31;58477;48.072;11.970;2024-03-23T03:50:25;6.99;93.94
65207;SHT31;58477;48.072;11.970;2024-03-23T03:52:50;6.95;95.41
65207;SHT31;58477;48.072;11.970;2024-03-23T03:55:16;6.96;95.63
65207;SHT31;58477;48.072;11.970;2024-03-23T03:57:42;6.70;95.73
65207;SHT31;58477;48.072;11.970;2024-03-23T04:00:07;6.71;95.35
65207;SHT31;58477;48.072;11.970;2024-03-23T04:02:39;6.60;95.45
65207;SHT31;58477;48.072;11.970;2024-03-23T04:05:05;6.38;96.22
65207;SHT31;58477;48.072;11.970;2024-03-23T04:07:31;6.40;96.28
65207;SHT31;58477;48.072;11.970;2024-03-23T04:09:56;6.36;96.06
65207;SHT31;58477;48.072;11.970;2024-03-23T04:12:23;6.27;96.29
65207;SHT31;58477;48.072;11.970;2024-03-23T04:14:49;6.16;96.33
65207;SHT31;58477;48.072;11.970;2024-03-23T04:17:14;6.10;96.82
65207;SHT31;58477;48.072;11.970;2024-03-23T04:19:39;6.11;96.89
65207;SHT31;58477;48.072;11.970;2024-03-23T04:22:05;6.11;96.90
65207;SHT31;58477;48.072;11.970;2024-03-23T04:24:30;6.36;95.68
65207;SHT31;58477;48.072;11.970;2024-03-23T04:26:56;6.41;95.27
65207;SHT31;58477;48.072;11.970;2024-03-23T04:29:21;6.65;94.30
65207;SHT31;58477;48.072;11.970;2024-03-23T04:31:47;6.60;94.39
65207;SHT31;58477;48.072;11.970;2024-03-23T04:34:13;6.58;94.18
65207;SHT31;58477;48.072;11.970;2024-03-23T04:36:38;6.65;93.83
65207;SHT31;58477;48.072;11.970;2024-03-23T04:39:04;6.65;93.88
65207;SHT31;58477;48.072;11.970;2024-03-23T04:41:29;6.67;93.65
65207;SHT31;58477;48.072;11.970;2024-03-23T04:43:55;6.63;93.53
65207;SHT31;58477;48.072;11.970;2024-03-23T04:46:20;6.67;93.70
65207;SHT31;58477;48.072;11.970;2024-03-23T04:48:46;6.67;93.31
65207;SHT31;58477;48.072;11.970;2024-03-23T04:51:23;6.55;93.52
65207;SHT31;58477;48.072;11.970;2024-03-23T04:53:49;6.58;93.59
65207;SHT31;58477;48.072;11.970;2024-03-23T04:56:15;6.61;93.33
65207;SHT31;58477;48.072;11.970;2024-03-23T04:58:41;6.64;93.11
65207;SHT31;58477;48.072;11.970;2024-03-23T05:01:06;6.71;92.76
65207;SHT31;58477;48.072;11.970;2024-03-23T05:03:32;6.74;92.57
65207;SHT31;58477;48.072;11.970;2024-03-23T05:05:57;6.84;92.00
65207;SHT31;58477;48.072;11.970;2024-03-23T05:08:23;6.85;92.02
65207;SHT31;58477;48.072;11.970;2024-03-23T05:10:49;6.78;92.09
65207;SHT31;58477;48.072;11.970;2024-03-23T05:13:14;6.80;92.21
65207;SHT31;58477;48.072;11.970;2024-03-23T05:15:39;6.81;92.18
65207;SHT31;58477;48.072;11.970;2024-03-23T05:18:05;6.75;92.21
65207;SHT31;58477;48.072;11.970;2024-03-23T05:20:31;6.68;92.51
65207;SHT31;58477;48.072;11.970;2024-03-23T05:22:57;6.71;92.21
65207;SHT31;58477;48.072;11.970;2024-03-23T05:25:22;6.74;92.75
65207;SHT31;58477;48.072;11.970;2024-03-23T05:27:48;6.71;92.23
65207;SHT31;58477;48.072;11.970;2024-03-23T05:30:14;6.84;91.79
65207;SHT31;58477;48.072;11.970;2024-03-23T05:32:40;6.84;91.79
65207;SHT31;58477;48.072;11.970;2024-03-23T05:35:07;6.87;91.72
65207;SHT31;58477;48.072;11.970;2024-03-23T05:37:33;6.95;91.40
65207;SHT31;58477;48.072;11.970;2024-03-23T05:40:02;7.05;90.81
65207;SHT31;58477;48.072;11.970;2024-03-23T05:42:29;7.16;90.50
65207;SHT31;58477;48.072;11.970;2024-03-23T05:44:54;7.30;90.40
65207;SHT31;58477;48.072;11.970;2024-03-23T05:47:20;7.46;89.35
65207;SHT31;58477;48.072;11.970;2024-03-23T05:49:48;7.66;88.43
65207;SHT31;58477;48.072;11.970;2024-03-23T05:52:14;7.84;87.90
65207;SHT31;58477;48.072;11.970;2024-03-23T05:54:39;8.64;85.77
65207;SHT31;58477;48.072;11.970;2024-03-23T05:57:05;9.48;83.47
65207;SHT31;58477;48.072;11.970;2024-03-23T05:59:33;10.29;81.31
65207;SHT31;58477;48.072;11.970;2024-03-23T06:01:58;10.72;80.08
65207;SHT31;58477;48.072;11.970;2024-03-23T06:04:23;11.07;79.32
65207;SHT31;58477;48.072;11.970;2024-03-23T06:06:50;11.37;77.66
65207;SHT31;58477;48.072;11.970;2024-03-23T06:09:17;11.80;75.66
65207;SHT31;58477;48.072;11.970;2024-03-23T06:11:42;11.95;76.20
65207;SHT31;58477;48.072;11.970;2024-03-23T06:14:08;12.02;76.26
65207;SHT31;58477;48.072;11.970;2024-03-23T06:16:33;12.52;74.52
65207;SHT31;58477;48.072;11.970;2024-03-23T06:18:59;12.67;74.68
65207;SHT31;58477;48.072;11.970;2024-03-23T06:21:25;13.09;74.09
65207;SHT31;58477;48.072;11.970;2024-03-23T06:23:54;13.16;75.21
65207;SHT31;58477;48.072;11.970;2024-03-23T06:26:20;13.27;74.89
65207;SHT31;58477;48.072;11.970;2024-03-23T06:28:46;13.33;72.92
65207;SHT31;58477;48.072;11.970;2024-03-23T06:31:12;13.43;72.22
65207;SHT31;58477;48.072;11.970;2024-03-23T06:33:37;13.37;72.32
65207;SHT31;58477;48.072;11.970;2024-03-23T06:36:04;13.47;72.86
65207;SHT31;58477;48.072;11.970;2024-03-23T06:38:30;13.51;72.41
65207;SHT31;58477;48.072;11.970;2024-03-23T06:40:55;13.92;71.83
65207;SHT31;58477;48.072;11.970;2024-03-23T06:43:21;14.11;70.60
65207;SHT31;58477;48.072;11.970;2024-03-23T06:45:53;14.25;71.78
65207;SHT31;58477;48.072;11.970;2024-03-23T06:48:19;14.55;70.54
65207;SHT31;58477;48.072;11.970;2024-03-23T06:50:45;14.87;69.54
65207;SHT31;58477;48.072;11.970;2024-03-23T06:53:12;14.75;70.59
65207;SHT31;58477;48.072;11.970;2024-03-23T06:55:37;15.58;69.23
65207;SHT31;58477;48.072;11.970;2024-03-23T06:58:03;16.62;64.40
65207;SHT31;58477;48.072;11.970;2024-03-23T07:00:29;16.38;64.31
65207;SHT31;58477;48.072;11.970;2024-03-23T07:02:54;16.84;64.60
65207;SHT31;58477;48.072;11.970;2024-03-23T07:05:20;16.30;64.69
65207;SHT31;58477;48.072;11.970;2024-03-23T07:07:45;15.54;67.57
65207;SHT31;58477;48.072;11.970;2024-03-23T07:10:11;15.45;67.21
65207;SHT31;58477;48.072;11.970;2024-03-23T07:12:36;15.44;67.39
65207;SHT31;58477;48.072;11.970;2024-03-23T07:15:03;15.79;68.34
65207;SHT31;58477;48.072;11.970;2024-03-23T07:17:29;16.18;68.47
65207;SHT31;58477;48.072;11.970;2024-03-23T07:19:57;16.25;66.57
65207;SHT31;58477;48.072;11.970;2024-03-23T07:22:23;17.20;65.50
65207;SHT31;58477;48.072;11.970;2024-03-23T07:24:49;17.74;63.70
65207;SHT31;58477;48.072;11.970;2024-03-23T07:27:14;17.58;63.76
65207;SHT31;58477;48.072;11.970;2024-03-23T07:29:40;17.96;64.12
65207;SHT31;58477;48.072;11.970;2024-03-23T07:32:05;17.92;63.70
65207;SHT31;58477;48.072;11.970;2024-03-23T07:34:31;18.03;64.00
65207;SHT31;58477;48.072;11.970;2024-03-23T07:36:56;18.56;64.21
65207;SHT31;58477;48.072;11.970;2024-03-23T07:39:22;19.21;62.39
65207;SHT31;58477;48.072;11.970;2024-03-23T07:41:47;19.48;59.50
65207;SHT31;58477;48.072;11.970;2024-03-23T07:44:13;20.68;58.46
65207;SHT31;58477;48.072;11.970;2024-03-23T07:46:38;20.71;57.54
65207;SHT31;58477;48.072;11.970;2024-03-23T07:49:06;20.22;58.93
65207;SHT31;58477;48.072;11.970;2024-03-23T07:51:32;17.72;64.34
65207;SHT31;58477;48.072;11.970;2024-03-23T07:53:59;17.42;65.82
65207;SHT31;58477;48.072;11.970;2024-03-23T07:56:24;17.10;68.23
65207;SHT31;58477;48.072;11.970;2024-03-23T07:58:49;16.60;69.35
65207;SHT31;58477;48.072;11.970;2024-03-23T08:01:16;15.95;68.84
65207;SHT31;58477;48.072;11.970;2024-03-23T08:03:45;15.82;66.50
65207;SHT31;58477;48.072;11.970;2024-03-23T08:06:13;16.19;66.42
65207;SHT31;58477;48.072;11.970;2024-03-23T08:08:40;15.69;68.69
65207;SHT31;58477;48.072;11.970;2024-03-23T08:11:06;16.49;65.73
65207;SHT31;58477;48.072;11.970;2024-03-23T08:13:32;16.97;65.79
65207;SHT31;58477;48.072;11.970;2024-03-23T08:15:58;16.26;66.74
65207;SHT31;58477;48.072;11.970;2024-03-23T08:18:24;15.79;68.68
65207;SHT31;58477;48.072;11.970;2024-03-23T08:21:02;15.81;70.55
65207;SHT31;58477;48.072;11.970;2024-03-23T08:23:29;15.57;71.05
65207;SHT31;58477;48.072;11.970;2024-03-23T08:25:59;14.49;73.12
65207;SHT31;58477;48.072;11.970;2024-03-23T08:28:25;13.86;75.90
65207;SHT31;58477;48.072;11.970;2024-03-23T08:30:52;13.11;77.69
65207;SHT31;58477;48.072;11.970;2024-03-23T08:33:18;12.67;78.39
65207;SHT31;58477;48.072;11.970;2024-03-23T08:35:53;12.20;80.01
65207;SHT31;58477;48.072;11.970;2024-03-23T08:38:19;11.75;82.58
65207;SHT31;58477;48.072;11.970;2024-03-23T08:40:44;11.70;83.19
65207;SHT31;58477;48.072;11.970;2024-03-23T08:43:10;11.46;84.51
65207;SHT31;58477;48.072;11.970;2024-03-23T08:45:35;11.16;86.74
65207;SHT31;58477;48.072;11.970;2024-03-23T08:48:01;10.96;88.42
65207;SHT31;58477;48.072;11.970;2024-03-23T08:50:26;10.82;89.87
65207;SHT31;58477;48.072;11.970;2024-03-23T08:52:51;10.71;91.11
65207;SHT31;58477;48.072;11.970;2024-03-23T08:55:17;10.45;92.43
65207;SHT31;58477;48.072;11.970;2024-03-23T08:57:42;10.35;93.48
65207;SHT31;58477;48.072;11.970;2024-03-23T09:00:08;10.11;95.04
65207;SHT31;58477;48.072;11.970;2024-03-23T09:02:34;9.90;96.06
65207;SHT31;58477;48.072;11.970;2024-03-23T09:05:00;9.63;96.33
65207;SHT31;58477;48.072;11.970;2024-03-23T09:07:30;9.30;95.95
65207;SHT31;58477;48.072;11.970;2024-03-23T09:09:55;9.08;96.27
65207;SHT31;58477;48.072;11.970;2024-03-23T09:12:21;8.95;96.43
65207;SHT31;58477;48.072;11.970;2024-03-23T09:14:46;8.82;97.36
65207;SHT31;58477;48.072;11.970;2024-03-23T09:17:12;8.69;97.72
65207;SHT31;58477;48.072;11.970;2024-03-23T09:19:38;8.68;98.25
65207;SHT31;58477;48.072;11.970;2024-03-23T09:22:05;8.54;98.28
65207;SHT31;58477;48.072;11.970;2024-03-23T09:24:30;8.49;98.83
65207;SHT31;58477;48.072;11.970;2024-03-23T09:26:57;8.45;98.80
65207;SHT31;58477;48.072;11.970;2024-03-23T09:29:22;8.34;98.35
65207;SHT31;58477;48.072;11.970;2024-03-23T09:31:48;8.21;98.88
65207;SHT31;58477;48.072;11.970;2024-03-23T09:34:13;8.25;98.95
65207;SHT31;58477;48.072;11.970;2024-03-23T09:36:39;8.35;98.90
65207;SHT31;58477;48.072;11.970;2024-03-23T09:39:04;8.38;99.09
65207;SHT31;58477;48.072;11.970;2024-03-23T09:41:30;8.48;98.59
65207;SHT31;58477;48.072;11.970;2024-03-23T09:43:56;8.47;98.67
65207;SHT31;58477;48.072;11.970;2024-03-23T09:46:21;8.38;98.45
65207;SHT31;58477;48.072;11.970;2024-03-23T09:48:48;8.28;98.95
65207;SHT31;58477;48.072;11.970;2024-03-23T09:51:14;8.27;98.73
65207;SHT31;58477;48.072;11.970;2024-03-23T09:53:39;8.21;99.20
65207;SHT31;58477;48.072;11.970;2024-03-23T09:56:04;8.03;98.74
65207;SHT31;58477;48.072;11.970;2024-03-23T09:58:30;7.90;99.46
65207;SHT31;58477;48.072;11.970;2024-03-23T10:00:58;7.89;99.44
65207;SHT31;58477;48.072;11.970;2024-03-23T10:03:23;7.83;99.87
65207;SHT31;58477;48.072;11.970;2024-03-23T10:06:00;7.90;99.99
65207;SHT31;58477;48.072;11.970;2024-03-23T10:08:25;7.91;99.99
65207;SHT31;58477;48.072;11.970;2024-03-23T10:10:51;7.89;99.99
65207;SHT31;58477;48.072;11.970;2024-03-23T10:13:28;7.74;99.05
65207;SHT31;58477;48.072;11.970;2024-03-23T10:15:58;7.82;99.78
65207;SHT31;58477;48.072;11.970;2024-03-23T10:18:24;7.86;98.17
65207;SHT31;58477;48.072;11.970;2024-03-23T10:23:31;7.74;98.73
65207;SHT31;58477;48.072;11.970;2024-03-23T10:26:12;7.73;99.45
65207;SHT31;58477;48.072;11.970;2024-03-23T10:28:56;7.56;98.16
65207;SHT31;58477;48.072;11.970;2024-03-23T10:31:24;7.49;98.79
65207;SHT31;58477;48.072;11.970;2024-03-23T10:33:50;7.33;97.70
65207;SHT31;58477;48.072;11.970;2024-03-23T10:36:16;7.25;97.32
65207;SHT31;58477;48.072;11.970;2024-03-23T10:38:43;7.20;97.00
65207;SHT31;58477;48.072;11.970;2024-03-23T10:41:09;7.25;97.17
65207;SHT31;58477;48.072;11.970;2024-03-23T10:43:38;7.23;98.27
65207;SHT31;58477;48.072;11.970;2024-03-23T10:46:04;7.23;98.62
65207;SHT31;58477;48.072;11.970;2024-03-23T10:48:32;7.11;98.78
65207;SHT31;58477;48.072;11.970;2024-03-23T10:50:57;7.06;98.98
65207;SHT31;58477;48.072;11.970;2024-03-23T10:53:26;6.99;99.66
65207;SHT31;58477;48.072;11.970;2024-03-23T10:55:52;6.77;97.66
65207;SHT31;58477;48.072;11.970;2024-03-23T10:58:23;6.53;98.42
65207;SHT31;58477;48.072;11.970;2024-03-23T11:00:49;6.43;98.84
65207;SHT31;58477;48.072;11.970;2024-03-23T11:03:37;6.47;99.99
65207;SHT31;58477;48.072;11.970;2024-03-23T11:06:04;6.63;99.99
65207;SHT31;58477;48.072;11.970;2024-03-23T11:08:35;6.74;99.55
65207;SHT31;58477;48.072;11.970;2024-03-23T11:13:38;6.95;99.99
65207;SHT31;58477;48.072;11.970;2024-03-23T11:18:43;6.70;98.75
65207;SHT31;58477;48.072;11.970;2024-03-23T11:21:10;6.60;98.71
65207;SHT31;58477;48.072;11.970;2024-03-23T11:23:36;6.48;96.91
65207;SHT31;58477;48.072;11.970;2024-03-23T11:26:02;6.43;97.58
65207;SHT31;58477;48.072;11.970;2024-03-23T11:28:27;6.43;96.54
65207;SHT31;58477;48.072;11.970;2024-03-23T11:30:53;6.48;96.76
65207;SHT31;58477;48.072;11.970;2024-03-23T11:33:18;6.54;96.79
65207;SHT31;58477;48.072;11.970;2024-03-23T11:35:44;6.61;96.78
65207;SHT31;58477;48.072;11.970;2024-03-23T11:38:17;6.67;95.29
65207;SHT31;58477;48.072;11.970;2024-03-23T11:40:47;6.65;94.51
65207;SHT31;58477;48.072;11.970;2024-03-23T11:43:14;6.71;95.08
65207;SHT31;58477;48.072;11.970;2024-03-23T11:45:44;6.67;95.91
65207;SHT31;58477;48.072;11.970;2024-03-23T11:48:14;6.75;96.05
65207;SHT31;58477;48.072;11.970;2024-03-23T11:50:42;6.84;97.24
65207;SHT31;58477;48.072;11.970;2024-03-23T11:53:16;6.92;97.92
65207;SHT31;58477;48.072;11.970;2024-03-23T11:55:47;6.94;97.27
65207;SHT31;58477;48.072;11.970;2024-03-23T11:58:14;6.94;97.81
65207;SHT31;58477;48.072;11.970;2024-03-23T12:00:40;6.94;97.04
65207;SHT31;58477;48.072;11.970;2024-03-23T12:03:05;6.96;96.92
65207;SHT31;58477;48.072;11.970;2024-03-23T12:05:32;6.92;97.18
65207;SHT31;58477;48.072;11.970;2024-03-23T12:08:17;6.96;96.89
65207;SHT31;58477;48.072;11.970;2024-03-23T12:10:54;6.92;96.48
65207;SHT31;58477;48.072;11.970;2024-03-23T12:13:29;6.94;95.68
65207;SHT31;58477;48.072;11.970;2024-03-23T12:15:54;6.96;95.35
65207;SHT31;58477;48.072;11.970;2024-03-23T12:18:23;7.04;96.20
65207;SHT31;58477;48.072;11.970;2024-03-23T12:20:50;7.14;95.96
65207;SHT31;58477;48.072;11.970;2024-03-23T12:23:15;7.25;96.39
65207;SHT31;58477;48.072;11.970;2024-03-23T12:25:42;7.32;94.76
65207;SHT31;58477;48.072;11.970;2024-03-23T12:28:08;7.48;95.32
65207;SHT31;58477;48.072;11.970;2024-03-23T12:30:35;7.53;94.81
65207;SHT31;58477;48.072;11.970;2024-03-23T12:33:01;7.56;95.48
65207;SHT31;58477;48.072;11.970;2024-03-23T12:35:26;7.60;95.03
65207;SHT31;58477;48.072;11.970;2024-03-23T12:37:52;7.42;95.43
65207;SHT31;58477;48.072;11.970;2024-03-23T12:40:17;7.39;95.75
65207;SHT31;58477;48.072;11.970;2024-03-23T12:42:43;7.18;96.61
65207;SHT31;58477;48.072;11.970;2024-03-23T12:45:09;7.06;96.92
65207;SHT31;58477;48.072;11.970;2024-03-23T12:47:34;6.99;96.56
65207;SHT31;58477;48.072;11.970;2024-03-23T12:50:00;6.50;94.79
65207;SHT31;58477;48.072;11.970;2024-03-23T12:52:25;6.05;93.82
65207;SHT31;58477;48.072;11.970;2024-03-23T12:54:55;5.92;95.90
65207;SHT31;58477;48.072;11.970;2024-03-23T12:57:24;5.82;94.94
65207;SHT31;58477;48.072;11.970;2024-03-23T12:59:51;5.92;95.90
65207;SHT31;58477;48.072;11.970;2024-03-23T13:02:18;5.99;95.86
65207;SHT31;58477;48.072;11.970;2024-03-23T13:04:45;6.09;97.36
65207;SHT31;58477;48.072;11.970;2024-03-23T13:07:10;6.13;97.64
65207;SHT31;58477;48.072;11.970;2024-03-23T13:09:36;6.20;97.91
65207;SHT31;58477;48.072;11.970;2024-03-23T13:12:01;6.13;97.66
65207;SHT31;58477;48.072;11.970;2024-03-23T13:14:27;5.95;97.95
65207;SHT31;58477;48.072;11.970;2024-03-23T13:16:53;5.99;97.37
65207;SHT31;58477;48.072;11.970;2024-03-23T13:19:18;6.17;97.16
65207;SHT31;58477;48.072;11.970;2024-03-23T13:21:46;6.48;96.17
65207;SHT31;58477;48.072;11.970;2024-03-23T13:24:11;6.63;95.63
65207;SHT31;58477;48.072;11.970;2024-03-23T13:26:37;6.83;95.29
65207;SHT31;58477;48.072;11.970;2024-03-23T13:29:02;7.01;94.24
65207;SHT31;58477;48.072;11.970;2024-03-23T13:31:27;7.20;94.61
65207;SHT31;58477;48.072;11.970;2024-03-23T13:33:53;7.26;94.59
65207;SHT31;58477;48.072;11.970;2024-03-23T13:36:18;7.48;93.97
65207;SHT31;58477;48.072;11.970;2024-03-23T13:38:43;7.67;94.75
65207;SHT31;58477;48.072;11.970;2024-03-23T13:41:09;7.87;95.41
65207;SHT31;58477;48.072;11.970;2024-03-23T13:43:37;7.98;93.09
65207;SHT31;58477;48.072;11.970;2024-03-23T13:46:03;8.10;93.78
65207;SHT31;58477;48.072;11.970;2024-03-23T13:48:29;8.07;91.19
65207;SHT31;58477;48.072;11.970;2024-03-23T13:51:01;7.77;90.80
65207;SHT31;58477;48.072;11.970;2024-03-23T13:53:26;7.74;92.06
65207;SHT31;58477;48.072;11.970;2024-03-23T13:55:52;7.72;91.55
65207;SHT31;58477;48.072;11.970;2024-03-23T13:58:18;7.67;93.32
65207;SHT31;58477;48.072;11.970;2024-03-23T14:00:44;7.72;92.85
65207;SHT31;58477;48.072;11.970;2024-03-23T14:03:10;7.67;94.35
65207;SHT31;58477;48.072;11.970;2024-03-23T14:05:36;7.66;92.34
65207;SHT31;58477;48.072;11.970;2024-03-23T14:08:12;7.67;92.70
65207;SHT31;58477;48.072;11.970;2024-03-23T14:10:40;7.58;91.72
65207;SHT31;58477;48.072;11.970;2024-03-23T14:13:06;7.52;93.21
65207;SHT31;58477;48.072;11.970;2024-03-23T14:15:31;7.35;93.94
65207;SHT31;58477;48.072;11.970;2024-03-23T14:17:57;7.12;91.67
65207;SHT31;58477;48.072;11.970;2024-03-23T14:20:23;7.02;93.17
65207;SHT31;58477;48.072;11.970;2024-03-23T14:22:49;6.96;95.99
65207;SHT31;58477;48.072;11.970;2024-03-23T14:25:15;6.89;96.56
65207;SHT31;58477;48.072;11.970;2024-03-23T14:27:43;6.64;95.39
65207;SHT31;58477;48.072;11.970;2024-03-23T14:30:09;6.37;96.88
65207;SHT31;58477;48.072;11.970;2024-03-23T14:32:34;5.49;95.63
65207;SHT31;58477;48.072;11.970;2024-03-23T14:35:01;5.11;97.55
65207;SHT31;58477;48.072;11.970;2024-03-23T14:37:26;4.70;99.31
65207;SHT31;58477;48.072;11.970;2024-03-23T14:39:52;4.40;99.59
65207;SHT31;58477;48.072;11.970;2024-03-23T14:42:17;4.06;99.38
65207;SHT31;58477;48.072;11.970;2024-03-23T14:44:43;3.75;99.36
65207;SHT31;58477;48.072;11.970;2024-03-23T14:47:08;3.71;99.93
65207;SHT31;58477;48.072;11.970;2024-03-23T14:49:33;3.75;99.60
65207;SHT31;58477;48.072;11.970;2024-03-23T14:51:59;3.67;99.64
65207;SHT31;58477;48.072;11.970;2024-03-23T14:54:24;3.71;99.97
65207;SHT31;58477;48.072;11.970;2024-03-23T14:56:50;3.75;99.93
65207;SHT31;58477;48.072;11.970;2024-03-23T14:59:15;3.78;99.60
65207;SHT31;58477;48.072;11.970;2024-03-23T15:01:40;3.83;99.87
65207;SHT31;58477;48.072;11.970;2024-03-23T15:04:06;3.95;99.99
65207;SHT31;58477;48.072;11.970;2024-03-23T15:06:32;3.98;99.99
65207;SHT31;58477;48.072;11.970;2024-03-23T15:08:59;4.02;99.99
65207;SHT31;58477;48.072;11.970;2024-03-23T15:11:24;4.06;99.91
65207;SHT31;58477;48.072;11.970;2024-03-23T15:13:50;4.02;99.44
65207;SHT31;58477;48.072;11.970;2024-03-23T15:16:18;4.16;99.99
65207;SHT31;58477;48.072;11.970;2024-03-23T15:18:45;4.19;99.68
65207;SHT31;58477;48.072;11.970;2024-03-23T15:21:11;4.16;99.99
65207;SHT31;58477;48.072;11.970;2024-03-23T15:23:37;4.20;99.97
65207;SHT31;58477;48.072;11.970;2024-03-23T15:26:03;4.06;99.58
65207;SHT31;58477;48.072;11.970;2024-03-23T15:28:31;4.09;99.06
65207;SHT31;58477;48.072;11.970;2024-03-23T15:31:04;4.03;97.26
65207;SHT31;58477;48.072;11.970;2024-03-23T15:33:30;3.92;97.14
65207;SHT31;58477;48.072;11.970;2024-03-23T15:35:59;3.86;98.79
65207;SHT31;58477;48.072;11.970;2024-03-23T15:38:24;3.85;98.11
65207;SHT31;58477;48.072;11.970;2024-03-23T15:40:53;3.79;98.63
65207;SHT31;58477;48.072;11.970;2024-03-23T15:43:19;3.85;99.38
65207;SHT31;58477;48.072;11.970;2024-03-23T15:45:53;3.92;99.10
65207;SHT31;58477;48.072;11.970;2024-03-23T15:48:18;4.01;99.58
65207;SHT31;58477;48.072;11.970;2024-03-23T15:50:53;4.03;99.70
65207;SHT31;58477;48.072;11.970;2024-03-23T15:53:23;4.09;99.45
65207;SHT31;58477;48.072;11.970;2024-03-23T15:55:59;4.02;98.44
65207;SHT31;58477;48.072;11.970;2024-03-23T15:58:25;4.07;99.61
65207;SHT31;58477;48.072;11.970;2024-03-23T16:03:25;4.13;99.33
65207;SHT31;58477;48.072;11.970;2024-03-23T16:05:52;4.19;99.64
65207;SHT31;58477;48.072;11.970;2024-03-23T16:08:18;4.19;99.10
65207;SHT31;58477;48.072;11.970;2024-03-23T16:10:43;4.19;99.68
65207;SHT31;58477;48.072;11.970;2024-03-23T16:13:09;4.19;99.99
65207;SHT31;58477;48.072;11.970;2024-03-23T16:15:34;4.22;99.99
65207;SHT31;58477;48.072;11.970;2024-03-23T16:18:00;4.20;99.98
65207;SHT31;58477;48.072;11.970;2024-03-23T16:20:25;4.20;99.99
65207;SHT31;58477;48.072;11.970;2024-03-23T16:22:50;4.23;99.99
65207;SHT31;58477;48.072;11.970;2024-03-23T16:25:16;4.17;99.71